sensor_id;sensor_type;location;lat;lon;timestamp;P1;durP1;ratioP1;P2;durP2;ratioP2
85544;SDS011;75982;52.834;13.846;2024-03-06T00:01:15;15.23;;;8.18;;
85544;SDS011;75982;52.834;13.846;2024-03-06T00:03:42;16.58;;;8.35;;
85544;SDS011;75982;52.834;13.846;2024-03-06T00:06:08;14.27;;;7.70;;
85544;SDS011;75982;52.834;13.846;2024-03-06T00:08:38;13.43;;;8.38;;
85544;SDS011;75982;52.834;13.846;2024-03-06T00:11:06;16.83;;;9.70;;
85544;SDS011;75982;52.834;13.846;2024-03-06T00:13:33;16.08;;;9.30;;
85544;SDS011;75982;52.834;13.846;2024-03-06T00:15:59;16.75;;;8.65;;
85544;SDS011;75982;52.834;13.846;2024-03-06T00:18:26;17.33;;;9.55;;
85544;SDS011;75982;52.834;13.846;2024-03-06T00:20:52;16.30;;;9.13;;
85544;SDS011;75982;52.834;13.846;2024-03-06T00:23:19;14.63;;;8.73;;
85544;SDS011;75982;52.834;13.846;2024-03-06T00:25:46;16.45;;;9.13;;
85544;SDS011;75982;52.834;13.846;2024-03-06T00:28:14;16.70;;;9.15;;
85544;SDS011;75982;52.834;13.846;2024-03-06T00:30:40;15.57;;;8.70;;
85544;SDS011;75982;52.834;13.846;2024-03-06T00:33:07;17.83;;;9.75;;
85544;SDS011;75982;52.834;13.846;2024-03-06T00:35:34;14.43;;;8.85;;
85544;SDS011;75982;52.834;13.846;2024-03-06T00:38:00;18.70;;;8.65;;
85544;SDS011;75982;52.834;13.846;2024-03-06T00:40:27;17.17;;;8.77;;
85544;SDS011;75982;52.834;13.846;2024-03-06T00:42:53;17.00;;;8.90;;
85544;SDS011;75982;52.834;13.846;2024-03-06T00:45:22;15.55;;;8.68;;
85544;SDS011;75982;52.834;13.846;2024-03-06T00:47:48;13.02;;;8.27;;
85544;SDS011;75982;52.834;13.846;2024-03-06T00:50:15;15.20;;;8.98;;
85544;SDS011;75982;52.834;13.846;2024-03-06T00:52:42;17.15;;;8.40;;
85544;SDS011;75982;52.834;13.846;2024-03-06T00:55:09;17.42;;;9.55;;
85544;SDS011;75982;52.834;13.846;2024-03-06T00:57:35;14.23;;;8.82;;
85544;SDS011;75982;52.834;13.846;2024-03-06T01:00:02;15.25;;;8.43;;
85544;SDS011;75982;52.834;13.846;2024-03-06T01:02:31;14.80;;;8.15;;
85544;SDS011;75982;52.834;13.846;2024-03-06T01:04:58;17.23;;;8.57;;
85544;SDS011;75982;52.834;13.846;2024-03-06T01:07:24;15.05;;;8.20;;
85544;SDS011;75982;52.834;13.846;2024-03-06T01:09:51;14.73;;;8.10;;
85544;SDS011;75982;52.834;13.846;2024-03-06T01:12:18;14.75;;;8.27;;
85544;SDS011;75982;52.834;13.846;2024-03-06T01:14:44;13.35;;;7.70;;
85544;SDS011;75982;52.834;13.846;2024-03-06T01:17:11;14.00;;;7.22;;
85544;SDS011;75982;52.834;13.846;2024-03-06T01:19:39;12.55;;;7.90;;
85544;SDS011;75982;52.834;13.846;2024-03-06T01:22:06;17.20;;;8.20;;
85544;SDS011;75982;52.834;13.846;2024-03-06T01:24:32;14.25;;;8.10;;
85544;SDS011;75982;52.834;13.846;2024-03-06T01:26:59;13.00;;;7.38;;
85544;SDS011;75982;52.834;13.846;2024-03-06T01:29:25;12.25;;;7.72;;
85544;SDS011;75982;52.834;13.846;2024-03-06T01:31:52;13.13;;;6.70;;
85544;SDS011;75982;52.834;13.846;2024-03-06T01:34:19;13.93;;;7.72;;
85544;SDS011;75982;52.834;13.846;2024-03-06T01:36:47;14.23;;;7.45;;
85544;SDS011;75982;52.834;13.846;2024-03-06T01:39:14;12.70;;;7.85;;
85544;SDS011;75982;52.834;13.846;2024-03-06T01:41:44;11.70;;;7.63;;
85544;SDS011;75982;52.834;13.846;2024-03-06T01:44:11;13.13;;;7.32;;
85544;SDS011;75982;52.834;13.846;2024-03-06T01:46:38;13.32;;;8.10;;
85544;SDS011;75982;52.834;13.846;2024-03-06T01:49:04;13.68;;;7.82;;
85544;SDS011;75982;52.834;13.846;2024-03-06T01:51:32;10.75;;;7.07;;
85544;SDS011;75982;52.834;13.846;2024-03-06T01:54:00;11.82;;;6.47;;
85544;SDS011;75982;52.834;13.846;2024-03-06T01:56:28;9.10;;;6.28;;
85544;SDS011;75982;52.834;13.846;2024-03-06T01:58:55;13.95;;;7.68;;
85544;SDS011;75982;52.834;13.846;2024-03-06T02:01:23;13.63;;;7.97;;
85544;SDS011;75982;52.834;13.846;2024-03-06T02:03:50;12.68;;;7.75;;
85544;SDS011;75982;52.834;13.846;2024-03-06T02:06:18;13.60;;;8.07;;
85544;SDS011;75982;52.834;13.846;2024-03-06T02:08:44;14.68;;;7.63;;
85544;SDS011;75982;52.834;13.846;2024-03-06T02:11:12;14.00;;;7.63;;
85544;SDS011;75982;52.834;13.846;2024-03-06T02:13:39;14.15;;;7.88;;
85544;SDS011;75982;52.834;13.846;2024-03-06T02:16:06;14.10;;;8.63;;
85544;SDS011;75982;52.834;13.846;2024-03-06T02:18:33;12.90;;;7.38;;
85544;SDS011;75982;52.834;13.846;2024-03-06T02:21:01;15.82;;;8.73;;
85544;SDS011;75982;52.834;13.846;2024-03-06T02:23:27;13.98;;;8.38;;
85544;SDS011;75982;52.834;13.846;2024-03-06T02:25:54;16.60;;;9.02;;
85544;SDS011;75982;52.834;13.846;2024-03-06T02:28:21;15.52;;;8.90;;
85544;SDS011;75982;52.834;13.846;2024-03-06T02:30:49;15.35;;;8.95;;
85544;SDS011;75982;52.834;13.846;2024-03-06T02:33:16;16.40;;;8.20;;
85544;SDS011;75982;52.834;13.846;2024-03-06T02:35:43;15.68;;;9.20;;
85544;SDS011;75982;52.834;13.846;2024-03-06T02:38:11;14.25;;;8.13;;
85544;SDS011;75982;52.834;13.846;2024-03-06T02:40:38;15.73;;;8.25;;
85544;SDS011;75982;52.834;13.846;2024-03-06T02:43:05;16.55;;;8.88;;
85544;SDS011;75982;52.834;13.846;2024-03-06T02:45:31;17.40;;;9.68;;
85544;SDS011;75982;52.834;13.846;2024-03-06T02:47:58;16.73;;;9.07;;
85544;SDS011;75982;52.834;13.846;2024-03-06T02:50:24;20.40;;;10.32;;
85544;SDS011;75982;52.834;13.846;2024-03-06T02:52:51;18.77;;;9.43;;
85544;SDS011;75982;52.834;13.846;2024-03-06T02:55:21;16.42;;;9.00;;
85544;SDS011;75982;52.834;13.846;2024-03-06T02:57:48;15.35;;;8.80;;
85544;SDS011;75982;52.834;13.846;2024-03-06T03:00:15;17.73;;;9.20;;
85544;SDS011;75982;52.834;13.846;2024-03-06T03:02:42;16.50;;;9.50;;
85544;SDS011;75982;52.834;13.846;2024-03-06T03:05:09;14.63;;;9.48;;
85544;SDS011;75982;52.834;13.846;2024-03-06T03:07:36;22.25;;;9.65;;
85544;SDS011;75982;52.834;13.846;2024-03-06T03:10:02;15.32;;;8.40;;
85544;SDS011;75982;52.834;13.846;2024-03-06T03:12:31;17.50;;;9.18;;
85544;SDS011;75982;52.834;13.846;2024-03-06T03:14:57;15.88;;;8.93;;
85544;SDS011;75982;52.834;13.846;2024-03-06T03:17:24;19.58;;;9.55;;
85544;SDS011;75982;52.834;13.846;2024-03-06T03:19:51;19.95;;;9.57;;
85544;SDS011;75982;52.834;13.846;2024-03-06T03:22:17;21.13;;;8.95;;
85544;SDS011;75982;52.834;13.846;2024-03-06T03:24:44;18.73;;;9.90;;
85544;SDS011;75982;52.834;13.846;2024-03-06T03:27:10;19.67;;;9.57;;
85544;SDS011;75982;52.834;13.846;2024-03-06T03:29:38;18.92;;;9.65;;
85544;SDS011;75982;52.834;13.846;2024-03-06T03:32:05;21.98;;;11.25;;
85544;SDS011;75982;52.834;13.846;2024-03-06T03:34:32;16.30;;;9.25;;
85544;SDS011;75982;52.834;13.846;2024-03-06T03:37:00;16.40;;;9.15;;
85544;SDS011;75982;52.834;13.846;2024-03-06T03:39:26;18.17;;;9.00;;
85544;SDS011;75982;52.834;13.846;2024-03-06T03:41:53;14.32;;;8.35;;
85544;SDS011;75982;52.834;13.846;2024-03-06T03:44:19;17.80;;;9.05;;
85544;SDS011;75982;52.834;13.846;2024-03-06T03:46:47;17.70;;;9.15;;
85544;SDS011;75982;52.834;13.846;2024-03-06T03:49:14;16.85;;;8.82;;
85544;SDS011;75982;52.834;13.846;2024-03-06T03:51:41;20.50;;;9.48;;
85544;SDS011;75982;52.834;13.846;2024-03-06T03:54:07;21.35;;;9.70;;
85544;SDS011;75982;52.834;13.846;2024-03-06T03:56:34;19.75;;;9.07;;
85544;SDS011;75982;52.834;13.846;2024-03-06T03:59:01;15.82;;;8.38;;
85544;SDS011;75982;52.834;13.846;2024-03-06T04:01:28;18.05;;;10.10;;
85544;SDS011;75982;52.834;13.846;2024-03-06T04:03:56;15.60;;;8.43;;
85544;SDS011;75982;52.834;13.846;2024-03-06T04:06:22;18.13;;;9.43;;
85544;SDS011;75982;52.834;13.846;2024-03-06T04:08:50;20.25;;;9.48;;
85544;SDS011;75982;52.834;13.846;2024-03-06T04:11:17;22.25;;;10.30;;
85544;SDS011;75982;52.834;13.846;2024-03-06T04:13:43;18.92;;;10.00;;
85544;SDS011;75982;52.834;13.846;2024-03-06T04:16:10;22.70;;;10.90;;
85544;SDS011;75982;52.834;13.846;2024-03-06T04:18:42;23.83;;;10.68;;
85544;SDS011;75982;52.834;13.846;2024-03-06T04:21:10;30.08;;;10.80;;
85544;SDS011;75982;52.834;13.846;2024-03-06T04:23:37;40.22;;;10.27;;
85544;SDS011;75982;52.834;13.846;2024-03-06T04:26:03;59.58;;;12.35;;
85544;SDS011;75982;52.834;13.846;2024-03-06T04:28:30;36.42;;;11.68;;
85544;SDS011;75982;52.834;13.846;2024-03-06T04:30:57;36.22;;;11.95;;
85544;SDS011;75982;52.834;13.846;2024-03-06T04:33:23;37.30;;;12.30;;
85544;SDS011;75982;52.834;13.846;2024-03-06T04:35:50;60.80;;;13.25;;
85544;SDS011;75982;52.834;13.846;2024-03-06T04:38:21;48.92;;;13.05;;
85544;SDS011;75982;52.834;13.846;2024-03-06T04:40:47;30.75;;;12.38;;
85544;SDS011;75982;52.834;13.846;2024-03-06T04:43:14;38.78;;;11.77;;
85544;SDS011;75982;52.834;13.846;2024-03-06T04:45:41;36.30;;;11.02;;
85544;SDS011;75982;52.834;13.846;2024-03-06T04:48:08;40.33;;;12.05;;
85544;SDS011;75982;52.834;13.846;2024-03-06T04:50:34;38.00;;;10.70;;
85544;SDS011;75982;52.834;13.846;2024-03-06T04:53:01;36.88;;;11.07;;
85544;SDS011;75982;52.834;13.846;2024-03-06T04:55:29;32.10;;;11.07;;
85544;SDS011;75982;52.834;13.846;2024-03-06T04:57:56;29.00;;;11.63;;
85544;SDS011;75982;52.834;13.846;2024-03-06T05:00:23;28.77;;;11.18;;
85544;SDS011;75982;52.834;13.846;2024-03-06T05:02:50;26.05;;;10.98;;
85544;SDS011;75982;52.834;13.846;2024-03-06T05:05:34;27.25;;;10.85;;
85544;SDS011;75982;52.834;13.846;2024-03-06T05:08:18;20.35;;;10.38;;
85544;SDS011;75982;52.834;13.846;2024-03-06T05:11:03;42.67;;;12.93;;
85544;SDS011;75982;52.834;13.846;2024-03-06T05:13:48;24.42;;;11.95;;
85544;SDS011;75982;52.834;13.846;2024-03-06T05:16:32;33.53;;;12.60;;
85544;SDS011;75982;52.834;13.846;2024-03-06T05:19:16;28.48;;;11.90;;
85544;SDS011;75982;52.834;13.846;2024-03-06T05:22:00;26.08;;;10.63;;
85544;SDS011;75982;52.834;13.846;2024-03-06T05:24:44;43.72;;;11.18;;
85544;SDS011;75982;52.834;13.846;2024-03-06T05:27:30;33.83;;;11.13;;
85544;SDS011;75982;52.834;13.846;2024-03-06T05:30:14;34.38;;;11.13;;
85544;SDS011;75982;52.834;13.846;2024-03-06T05:32:58;37.72;;;11.20;;
85544;SDS011;75982;52.834;13.846;2024-03-06T05:35:42;36.03;;;11.38;;
85544;SDS011;75982;52.834;13.846;2024-03-06T05:38:26;27.63;;;9.98;;
85544;SDS011;75982;52.834;13.846;2024-03-06T05:41:10;34.95;;;12.13;;
85544;SDS011;75982;52.834;13.846;2024-03-06T05:43:55;33.72;;;11.75;;
85544;SDS011;75982;52.834;13.846;2024-03-06T05:46:39;29.95;;;10.73;;
85544;SDS011;75982;52.834;13.846;2024-03-06T05:49:24;36.22;;;11.45;;
85544;SDS011;75982;52.834;13.846;2024-03-06T05:52:08;31.02;;;11.68;;
85544;SDS011;75982;52.834;13.846;2024-03-06T05:54:51;26.67;;;11.52;;
85544;SDS011;75982;52.834;13.846;2024-03-06T05:57:35;75.38;;;13.63;;
85544;SDS011;75982;52.834;13.846;2024-03-06T06:00:21;60.10;;;14.02;;
85544;SDS011;75982;52.834;13.846;2024-03-06T06:02:49;39.60;;;12.20;;
85544;SDS011;75982;52.834;13.846;2024-03-06T06:05:16;41.70;;;13.75;;
85544;SDS011;75982;52.834;13.846;2024-03-06T06:07:49;44.05;;;14.73;;
85544;SDS011;75982;52.834;13.846;2024-03-06T06:10:16;36.60;;;13.30;;
85544;SDS011;75982;52.834;13.846;2024-03-06T06:12:47;65.43;;;19.23;;
85544;SDS011;75982;52.834;13.846;2024-03-06T06:15:14;68.18;;;21.15;;
85544;SDS011;75982;52.834;13.846;2024-03-06T06:17:42;68.25;;;18.48;;
85544;SDS011;75982;52.834;13.846;2024-03-06T06:20:10;34.20;;;14.45;;
85544;SDS011;75982;52.834;13.846;2024-03-06T06:22:37;43.80;;;13.93;;
85544;SDS011;75982;52.834;13.846;2024-03-06T06:25:03;43.38;;;10.73;;
85544;SDS011;75982;52.834;13.846;2024-03-06T06:27:30;99.28;;;14.95;;
85544;SDS011;75982;52.834;13.846;2024-03-06T06:29:57;29.10;;;11.00;;
85544;SDS011;75982;52.834;13.846;2024-03-06T06:32:24;41.95;;;12.55;;
85544;SDS011;75982;52.834;13.846;2024-03-06T06:34:52;72.72;;;14.48;;
85544;SDS011;75982;52.834;13.846;2024-03-06T06:37:19;33.67;;;11.88;;
85544;SDS011;75982;52.834;13.846;2024-03-06T06:39:46;55.53;;;13.57;;
85544;SDS011;75982;52.834;13.846;2024-03-06T06:42:13;35.67;;;12.57;;
85544;SDS011;75982;52.834;13.846;2024-03-06T06:44:39;79.72;;;16.73;;
85544;SDS011;75982;52.834;13.846;2024-03-06T06:47:06;51.55;;;17.48;;
85544;SDS011;75982;52.834;13.846;2024-03-06T06:49:32;47.35;;;15.68;;
85544;SDS011;75982;52.834;13.846;2024-03-06T06:52:00;42.33;;;19.42;;
85544;SDS011;75982;52.834;13.846;2024-03-06T06:54:27;51.03;;;13.05;;
85544;SDS011;75982;52.834;13.846;2024-03-06T06:56:54;47.95;;;11.32;;
85544;SDS011;75982;52.834;13.846;2024-03-06T06:59:20;40.28;;;12.30;;
85544;SDS011;75982;52.834;13.846;2024-03-06T07:01:50;51.55;;;15.00;;
85544;SDS011;75982;52.834;13.846;2024-03-06T07:04:17;50.83;;;14.07;;
85544;SDS011;75982;52.834;13.846;2024-03-06T07:06:43;53.67;;;12.70;;
85544;SDS011;75982;52.834;13.846;2024-03-06T07:09:12;88.53;;;13.85;;
85544;SDS011;75982;52.834;13.846;2024-03-06T07:11:38;74.25;;;14.88;;
85544;SDS011;75982;52.834;13.846;2024-03-06T07:14:05;59.08;;;15.93;;
85544;SDS011;75982;52.834;13.846;2024-03-06T07:16:32;87.05;;;14.43;;
85544;SDS011;75982;52.834;13.846;2024-03-06T07:18:58;32.38;;;11.48;;
85544;SDS011;75982;52.834;13.846;2024-03-06T07:21:25;52.58;;;12.07;;
85544;SDS011;75982;52.834;13.846;2024-03-06T07:23:52;43.63;;;12.57;;
85544;SDS011;75982;52.834;13.846;2024-03-06T07:26:20;54.40;;;12.02;;
85544;SDS011;75982;52.834;13.846;2024-03-06T07:28:47;36.17;;;12.95;;
85544;SDS011;75982;52.834;13.846;2024-03-06T07:31:14;27.83;;;12.27;;
85544;SDS011;75982;52.834;13.846;2024-03-06T07:33:40;23.67;;;12.35;;
85544;SDS011;75982;52.834;13.846;2024-03-06T07:36:07;27.13;;;12.90;;
85544;SDS011;75982;52.834;13.846;2024-03-06T07:38:35;24.92;;;12.68;;
85544;SDS011;75982;52.834;13.846;2024-03-06T07:41:01;23.55;;;11.50;;
85544;SDS011;75982;52.834;13.846;2024-03-06T07:43:30;22.27;;;11.20;;
85544;SDS011;75982;52.834;13.846;2024-03-06T07:45:56;28.63;;;12.95;;
85544;SDS011;75982;52.834;13.846;2024-03-06T07:48:23;20.98;;;11.30;;
85544;SDS011;75982;52.834;13.846;2024-03-06T07:50:49;29.17;;;14.30;;
85544;SDS011;75982;52.834;13.846;2024-03-06T07:53:16;25.15;;;13.63;;
85544;SDS011;75982;52.834;13.846;2024-03-06T07:55:43;24.92;;;13.90;;
85544;SDS011;75982;52.834;13.846;2024-03-06T07:58:09;29.10;;;13.88;;
85544;SDS011;75982;52.834;13.846;2024-03-06T08:00:37;25.13;;;13.40;;
85544;SDS011;75982;52.834;13.846;2024-03-06T08:03:04;24.80;;;12.93;;
85544;SDS011;75982;52.834;13.846;2024-03-06T08:05:31;24.92;;;12.93;;
85544;SDS011;75982;52.834;13.846;2024-03-06T08:07:58;24.55;;;13.30;;
85544;SDS011;75982;52.834;13.846;2024-03-06T08:10:24;23.70;;;12.93;;
85544;SDS011;75982;52.834;13.846;2024-03-06T08:12:51;24.85;;;13.13;;
85544;SDS011;75982;52.834;13.846;2024-03-06T08:15:17;21.65;;;12.32;;
85544;SDS011;75982;52.834;13.846;2024-03-06T08:17:47;22.20;;;12.82;;
85544;SDS011;75982;52.834;13.846;2024-03-06T08:20:15;23.75;;;12.75;;
85544;SDS011;75982;52.834;13.846;2024-03-06T08:22:42;23.77;;;12.65;;
85544;SDS011;75982;52.834;13.846;2024-03-06T08:25:09;23.17;;;13.23;;
85544;SDS011;75982;52.834;13.846;2024-03-06T08:27:38;21.70;;;13.52;;
85544;SDS011;75982;52.834;13.846;2024-03-06T08:30:06;23.55;;;12.73;;
85544;SDS011;75982;52.834;13.846;2024-03-06T08:32:34;25.00;;;13.43;;
85544;SDS011;75982;52.834;13.846;2024-03-06T08:35:03;23.23;;;13.02;;
85544;SDS011;75982;52.834;13.846;2024-03-06T08:37:30;22.55;;;13.20;;
85544;SDS011;75982;52.834;13.846;2024-03-06T08:39:56;23.77;;;12.45;;
85544;SDS011;75982;52.834;13.846;2024-03-06T08:42:25;26.30;;;12.45;;
85544;SDS011;75982;52.834;13.846;2024-03-06T08:44:51;27.13;;;13.00;;
85544;SDS011;75982;52.834;13.846;2024-03-06T08:47:18;22.40;;;12.63;;
85544;SDS011;75982;52.834;13.846;2024-03-06T08:49:45;23.15;;;12.80;;
85544;SDS011;75982;52.834;13.846;2024-03-06T08:52:13;24.58;;;13.38;;
85544;SDS011;75982;52.834;13.846;2024-03-06T08:54:40;23.83;;;13.32;;
85544;SDS011;75982;52.834;13.846;2024-03-06T08:57:07;24.60;;;13.10;;
85544;SDS011;75982;52.834;13.846;2024-03-06T08:59:34;25.15;;;13.45;;
85544;SDS011;75982;52.834;13.846;2024-03-06T09:02:11;23.08;;;13.25;;
85544;SDS011;75982;52.834;13.846;2024-03-06T09:04:39;22.73;;;12.65;;
85544;SDS011;75982;52.834;13.846;2024-03-06T09:07:06;23.33;;;12.38;;
85544;SDS011;75982;52.834;13.846;2024-03-06T09:09:34;23.63;;;13.07;;
85544;SDS011;75982;52.834;13.846;2024-03-06T09:12:01;24.13;;;12.95;;
85544;SDS011;75982;52.834;13.846;2024-03-06T09:14:27;24.13;;;13.05;;
85544;SDS011;75982;52.834;13.846;2024-03-06T09:16:54;21.33;;;12.82;;
85544;SDS011;75982;52.834;13.846;2024-03-06T09:19:21;22.80;;;13.40;;
85544;SDS011;75982;52.834;13.846;2024-03-06T09:21:47;21.63;;;13.02;;
85544;SDS011;75982;52.834;13.846;2024-03-06T09:24:14;23.70;;;13.63;;
85544;SDS011;75982;52.834;13.846;2024-03-06T09:26:42;25.40;;;13.80;;
85544;SDS011;75982;52.834;13.846;2024-03-06T09:29:09;24.35;;;14.13;;
85544;SDS011;75982;52.834;13.846;2024-03-06T09:31:36;23.27;;;13.00;;
85544;SDS011;75982;52.834;13.846;2024-03-06T09:34:03;25.38;;;14.65;;
85544;SDS011;75982;52.834;13.846;2024-03-06T09:36:29;24.98;;;13.73;;
85544;SDS011;75982;52.834;13.846;2024-03-06T09:38:56;22.55;;;13.43;;
85544;SDS011;75982;52.834;13.846;2024-03-06T09:41:23;25.85;;;13.73;;
85544;SDS011;75982;52.834;13.846;2024-03-06T09:43:51;20.67;;;11.88;;
85544;SDS011;75982;52.834;13.846;2024-03-06T09:46:18;22.35;;;13.15;;
85544;SDS011;75982;52.834;13.846;2024-03-06T09:48:45;21.45;;;12.63;;
85544;SDS011;75982;52.834;13.846;2024-03-06T09:51:13;21.67;;;10.70;;
85544;SDS011;75982;52.834;13.846;2024-03-06T09:53:40;18.33;;;11.30;;
85544;SDS011;75982;52.834;13.846;2024-03-06T09:56:07;19.48;;;10.20;;
85544;SDS011;75982;52.834;13.846;2024-03-06T09:58:35;16.63;;;10.48;;
85544;SDS011;75982;52.834;13.846;2024-03-06T10:01:04;17.73;;;10.13;;
85544;SDS011;75982;52.834;13.846;2024-03-06T10:03:32;17.80;;;10.48;;
85544;SDS011;75982;52.834;13.846;2024-03-06T10:05:58;17.58;;;11.00;;
85544;SDS011;75982;52.834;13.846;2024-03-06T10:08:30;20.00;;;11.70;;
85544;SDS011;75982;52.834;13.846;2024-03-06T10:10:57;17.90;;;10.80;;
85544;SDS011;75982;52.834;13.846;2024-03-06T10:13:24;22.58;;;12.50;;
85544;SDS011;75982;52.834;13.846;2024-03-06T10:15:57;24.77;;;13.00;;
85544;SDS011;75982;52.834;13.846;2024-03-06T10:18:27;27.23;;;13.75;;
85544;SDS011;75982;52.834;13.846;2024-03-06T10:20:55;30.75;;;14.88;;
85544;SDS011;75982;52.834;13.846;2024-03-06T10:23:22;32.35;;;15.18;;
85544;SDS011;75982;52.834;13.846;2024-03-06T10:25:49;36.30;;;16.15;;
85544;SDS011;75982;52.834;13.846;2024-03-06T10:28:17;42.30;;;18.38;;
85544;SDS011;75982;52.834;13.846;2024-03-06T10:30:44;45.97;;;18.80;;
85544;SDS011;75982;52.834;13.846;2024-03-06T10:33:11;58.53;;;22.13;;
85544;SDS011;75982;52.834;13.846;2024-03-06T10:35:41;58.30;;;21.92;;
85544;SDS011;75982;52.834;13.846;2024-03-06T10:38:09;49.80;;;19.38;;
85544;SDS011;75982;52.834;13.846;2024-03-06T10:40:37;52.30;;;19.77;;
85544;SDS011;75982;52.834;13.846;2024-03-06T10:43:04;60.28;;;22.52;;
85544;SDS011;75982;52.834;13.846;2024-03-06T10:45:36;60.92;;;21.42;;
85544;SDS011;75982;52.834;13.846;2024-03-06T10:48:12;60.80;;;20.38;;
85544;SDS011;75982;52.834;13.846;2024-03-06T10:50:42;62.58;;;21.48;;
85544;SDS011;75982;52.834;13.846;2024-03-06T10:53:10;62.17;;;22.98;;
85544;SDS011;75982;52.834;13.846;2024-03-06T10:55:43;65.82;;;23.73;;
85544;SDS011;75982;52.834;13.846;2024-03-06T11:00:38;100.78;;;30.70;;
85544;SDS011;75982;52.834;13.846;2024-03-06T11:05:34;90.38;;;30.00;;
85544;SDS011;75982;52.834;13.846;2024-03-06T11:08:05;83.75;;;28.88;;
85544;SDS011;75982;52.834;13.846;2024-03-06T11:10:32;88.00;;;29.08;;
85544;SDS011;75982;52.834;13.846;2024-03-06T11:13:00;88.57;;;29.00;;
85544;SDS011;75982;52.834;13.846;2024-03-06T11:15:27;76.50;;;26.55;;
85544;SDS011;75982;52.834;13.846;2024-03-06T11:17:54;66.57;;;23.10;;
85544;SDS011;75982;52.834;13.846;2024-03-06T11:20:21;66.43;;;22.80;;
85544;SDS011;75982;52.834;13.846;2024-03-06T11:23:07;60.13;;;21.15;;
85544;SDS011;75982;52.834;13.846;2024-03-06T11:28:28;68.15;;;24.10;;
85544;SDS011;75982;52.834;13.846;2024-03-06T11:30:56;75.32;;;24.95;;
85544;SDS011;75982;52.834;13.846;2024-03-06T11:33:27;58.35;;;23.00;;
85544;SDS011;75982;52.834;13.846;2024-03-06T11:36:17;62.60;;;23.50;;
85544;SDS011;75982;52.834;13.846;2024-03-06T11:38:53;60.72;;;21.58;;
85544;SDS011;75982;52.834;13.846;2024-03-06T11:41:23;66.70;;;21.92;;
85544;SDS011;75982;52.834;13.846;2024-03-06T11:43:52;55.83;;;22.38;;
85544;SDS011;75982;52.834;13.846;2024-03-06T11:46:20;72.60;;;26.27;;
85544;SDS011;75982;52.834;13.846;2024-03-06T11:48:53;60.83;;;23.52;;
85544;SDS011;75982;52.834;13.846;2024-03-06T11:51:21;65.43;;;25.05;;
85544;SDS011;75982;52.834;13.846;2024-03-06T11:53:52;69.38;;;26.08;;
85544;SDS011;75982;52.834;13.846;2024-03-06T11:56:19;68.25;;;25.27;;
85544;SDS011;75982;52.834;13.846;2024-03-06T11:58:46;73.07;;;26.25;;
85544;SDS011;75982;52.834;13.846;2024-03-06T12:01:15;66.07;;;26.90;;
85544;SDS011;75982;52.834;13.846;2024-03-06T12:03:43;67.63;;;24.92;;
85544;SDS011;75982;52.834;13.846;2024-03-06T12:06:09;54.83;;;22.77;;
85544;SDS011;75982;52.834;13.846;2024-03-06T12:08:36;55.45;;;22.00;;
85544;SDS011;75982;52.834;13.846;2024-03-06T12:11:05;57.05;;;24.60;;
85544;SDS011;75982;52.834;13.846;2024-03-06T12:13:32;62.83;;;24.73;;
85544;SDS011;75982;52.834;13.846;2024-03-06T12:15:59;55.75;;;21.40;;
85544;SDS011;75982;52.834;13.846;2024-03-06T12:18:30;52.33;;;23.30;;
85544;SDS011;75982;52.834;13.846;2024-03-06T12:20:57;48.40;;;20.25;;
85544;SDS011;75982;52.834;13.846;2024-03-06T12:23:26;51.72;;;22.00;;
85544;SDS011;75982;52.834;13.846;2024-03-06T12:26:01;43.85;;;19.98;;
85544;SDS011;75982;52.834;13.846;2024-03-06T12:28:31;40.53;;;19.27;;
85544;SDS011;75982;52.834;13.846;2024-03-06T12:30:58;39.97;;;18.17;;
85544;SDS011;75982;52.834;13.846;2024-03-06T12:33:28;38.63;;;18.27;;
85544;SDS011;75982;52.834;13.846;2024-03-06T12:36:01;33.75;;;16.80;;
85544;SDS011;75982;52.834;13.846;2024-03-06T12:38:29;34.17;;;15.88;;
85544;SDS011;75982;52.834;13.846;2024-03-06T12:40:56;30.38;;;14.48;;
85544;SDS011;75982;52.834;13.846;2024-03-06T12:43:23;32.28;;;16.65;;
85544;SDS011;75982;52.834;13.846;2024-03-06T12:45:51;26.73;;;14.02;;
85544;SDS011;75982;52.834;13.846;2024-03-06T12:48:18;31.35;;;14.75;;
85544;SDS011;75982;52.834;13.846;2024-03-06T12:50:45;31.02;;;15.60;;
85544;SDS011;75982;52.834;13.846;2024-03-06T12:53:11;32.92;;;16.13;;
85544;SDS011;75982;52.834;13.846;2024-03-06T12:55:38;35.25;;;16.35;;
85544;SDS011;75982;52.834;13.846;2024-03-06T12:58:05;39.13;;;17.77;;
85544;SDS011;75982;52.834;13.846;2024-03-06T13:00:32;35.00;;;17.23;;
85544;SDS011;75982;52.834;13.846;2024-03-06T13:03:00;34.63;;;16.52;;
85544;SDS011;75982;52.834;13.846;2024-03-06T13:05:26;40.65;;;17.45;;
85544;SDS011;75982;52.834;13.846;2024-03-06T13:07:53;38.65;;;18.52;;
85544;SDS011;75982;52.834;13.846;2024-03-06T13:10:19;32.47;;;17.13;;
85544;SDS011;75982;52.834;13.846;2024-03-06T13:12:46;26.98;;;14.93;;
85544;SDS011;75982;52.834;13.846;2024-03-06T13:15:13;24.55;;;13.25;;
85544;SDS011;75982;52.834;13.846;2024-03-06T13:17:39;24.85;;;13.75;;
85544;SDS011;75982;52.834;13.846;2024-03-06T13:20:08;29.88;;;13.60;;
85544;SDS011;75982;52.834;13.846;2024-03-06T13:22:35;23.55;;;12.48;;
85544;SDS011;75982;52.834;13.846;2024-03-06T13:25:02;21.15;;;11.52;;
85544;SDS011;75982;52.834;13.846;2024-03-06T13:27:29;17.00;;;10.02;;
85544;SDS011;75982;52.834;13.846;2024-03-06T13:29:56;15.35;;;10.55;;
85544;SDS011;75982;52.834;13.846;2024-03-06T13:32:22;15.43;;;10.15;;
85544;SDS011;75982;52.834;13.846;2024-03-06T13:34:49;14.70;;;9.65;;
85544;SDS011;75982;52.834;13.846;2024-03-06T13:37:17;16.77;;;9.32;;
85544;SDS011;75982;52.834;13.846;2024-03-06T13:39:44;15.70;;;9.10;;
85544;SDS011;75982;52.834;13.846;2024-03-06T13:42:11;13.55;;;9.27;;
85544;SDS011;75982;52.834;13.846;2024-03-06T13:44:37;16.55;;;10.18;;
85544;SDS011;75982;52.834;13.846;2024-03-06T13:47:04;15.60;;;10.65;;
85544;SDS011;75982;52.834;13.846;2024-03-06T13:49:35;18.23;;;10.57;;
85544;SDS011;75982;52.834;13.846;2024-03-06T13:52:03;16.60;;;10.50;;
85544;SDS011;75982;52.834;13.846;2024-03-06T13:54:32;14.63;;;9.65;;
85544;SDS011;75982;52.834;13.846;2024-03-06T13:56:58;16.33;;;10.45;;
85544;SDS011;75982;52.834;13.846;2024-03-06T13:59:25;18.65;;;10.40;;
85544;SDS011;75982;52.834;13.846;2024-03-06T14:01:52;14.70;;;10.20;;
85544;SDS011;75982;52.834;13.846;2024-03-06T14:04:18;17.45;;;11.40;;
85544;SDS011;75982;52.834;13.846;2024-03-06T14:06:45;17.98;;;11.88;;
85544;SDS011;75982;52.834;13.846;2024-03-06T14:09:12;20.55;;;9.77;;
85544;SDS011;75982;52.834;13.846;2024-03-06T14:11:40;17.38;;;11.48;;
85544;SDS011;75982;52.834;13.846;2024-03-06T14:14:07;24.17;;;16.48;;
85544;SDS011;75982;52.834;13.846;2024-03-06T14:16:33;17.45;;;11.38;;
85544;SDS011;75982;52.834;13.846;2024-03-06T14:19:00;14.65;;;10.85;;
85544;SDS011;75982;52.834;13.846;2024-03-06T14:21:27;15.98;;;11.30;;
85544;SDS011;75982;52.834;13.846;2024-03-06T14:23:54;15.57;;;10.80;;
85544;SDS011;75982;52.834;13.846;2024-03-06T14:26:20;13.02;;;9.57;;
85544;SDS011;75982;52.834;13.846;2024-03-06T14:28:49;16.73;;;10.55;;